sensor_id;sensor_type;location;lat;lon;timestamp;P1;durP1;ratioP1;P2;durP2;ratioP2
71360;SDS011;59166;48.908;1.870;2023-04-07T00:02:59;7.97;;;1.40;;
71360;SDS011;59166;48.908;1.870;2023-04-07T00:08:00;8.07;;;1.33;;
71360;SDS011;59166;48.908;1.870;2023-04-07T00:13:02;9.13;;;1.77;;
71360;SDS011;59166;48.908;1.870;2023-04-07T00:18:03;7.83;;;1.70;;
71360;SDS011;59166;48.908;1.870;2023-04-07T00:23:03;10.63;;;1.90;;
71360;SDS011;59166;48.908;1.870;2023-04-07T00:28:05;10.83;;;1.77;;
71360;SDS011;59166;48.908;1.870;2023-04-07T00:33:06;8.43;;;1.92;;
71360;SDS011;59166;48.908;1.870;2023-04-07T00:38:06;6.70;;;1.50;;
71360;SDS011;59166;48.908;1.870;2023-04-07T00:43:09;9.40;;;1.92;;
71360;SDS011;59166;48.908;1.870;2023-04-07T00:48:09;6.93;;;1.50;;
71360;SDS011;59166;48.908;1.870;2023-04-07T00:53:10;10.38;;;1.95;;
71360;SDS011;59166;48.908;1.870;2023-04-07T00:58:12;10.23;;;1.73;;
71360;SDS011;59166;48.908;1.870;2023-04-07T01:03:15;10.63;;;1.65;;
71360;SDS011;59166;48.908;1.870;2023-04-07T01:08:20;10.90;;;1.77;;
71360;SDS011;59166;48.908;1.870;2023-04-07T01:13:26;9.03;;;1.47;;
71360;SDS011;59166;48.908;1.870;2023-04-07T01:18:31;9.85;;;1.85;;
71360;SDS011;59166;48.908;1.870;2023-04-07T01:23:40;7.88;;;1.70;;
71360;SDS011;59166;48.908;1.870;2023-04-07T01:34:26;10.48;;;1.80;;
71360;SDS011;59166;48.908;1.870;2023-04-07T01:39:29;9.13;;;1.67;;
71360;SDS011;59166;48.908;1.870;2023-04-07T01:44:31;8.10;;;1.50;;
71360;SDS011;59166;48.908;1.870;2023-04-07T01:49:34;8.97;;;1.80;;
71360;SDS011;59166;48.908;1.870;2023-04-07T01:54:35;10.48;;;1.73;;
71360;SDS011;59166;48.908;1.870;2023-04-07T01:59:36;10.33;;;1.90;;
71360;SDS011;59166;48.908;1.870;2023-04-07T02:04:39;11.87;;;2.20;;
71360;SDS011;59166;48.908;1.870;2023-04-07T02:09:54;10.30;;;2.00;;
71360;SDS011;59166;48.908;1.870;2023-04-07T02:14:57;6.83;;;1.90;;
71360;SDS011;59166;48.908;1.870;2023-04-07T02:20:01;6.55;;;1.67;;
71360;SDS011;59166;48.908;1.870;2023-04-07T02:25:02;8.20;;;1.85;;
71360;SDS011;59166;48.908;1.870;2023-04-07T02:30:20;11.60;;;1.80;;
71360;SDS011;59166;48.908;1.870;2023-04-07T02:35:23;7.82;;;1.90;;
71360;SDS011;59166;48.908;1.870;2023-04-07T02:40:23;8.77;;;1.90;;
71360;SDS011;59166;48.908;1.870;2023-04-07T02:45:24;12.27;;;2.43;;
71360;SDS011;59166;48.908;1.870;2023-04-07T02:50:26;9.10;;;2.03;;
71360;SDS011;59166;48.908;1.870;2023-04-07T02:55:27;9.52;;;2.28;;
71360;SDS011;59166;48.908;1.870;2023-04-07T03:00:27;10.03;;;2.10;;
71360;SDS011;59166;48.908;1.870;2023-04-07T03:05:29;10.18;;;2.78;;
71360;SDS011;59166;48.908;1.870;2023-04-07T03:10:30;11.20;;;2.50;;
71360;SDS011;59166;48.908;1.870;2023-04-07T03:15:31;14.15;;;2.80;;
71360;SDS011;59166;48.908;1.870;2023-04-07T03:20:33;11.70;;;3.30;;
71360;SDS011;59166;48.908;1.870;2023-04-07T03:25:33;16.17;;;4.30;;
71360;SDS011;59166;48.908;1.870;2023-04-07T03:30:34;15.60;;;5.40;;
71360;SDS011;59166;48.908;1.870;2023-04-07T03:35:36;18.87;;;7.03;;
71360;SDS011;59166;48.908;1.870;2023-04-07T03:40:36;19.70;;;6.75;;
71360;SDS011;59166;48.908;1.870;2023-04-07T03:45:37;19.97;;;6.27;;
71360;SDS011;59166;48.908;1.870;2023-04-07T03:50:39;18.93;;;5.90;;
71360;SDS011;59166;48.908;1.870;2023-04-07T03:55:40;16.80;;;5.45;;
71360;SDS011;59166;48.908;1.870;2023-04-07T04:00:41;13.35;;;4.53;;
71360;SDS011;59166;48.908;1.870;2023-04-07T04:05:43;18.87;;;4.90;;
71360;SDS011;59166;48.908;1.870;2023-04-07T04:10:44;14.00;;;4.28;;
71360;SDS011;59166;48.908;1.870;2023-04-07T04:15:45;12.60;;;4.00;;
71360;SDS011;59166;48.908;1.870;2023-04-07T04:20:47;16.17;;;4.00;;
71360;SDS011;59166;48.908;1.870;2023-04-07T04:25:47;16.60;;;3.95;;
71360;SDS011;59166;48.908;1.870;2023-04-07T04:30:48;11.83;;;3.83;;
71360;SDS011;59166;48.908;1.870;2023-04-07T04:35:50;15.17;;;3.20;;
71360;SDS011;59166;48.908;1.870;2023-04-07T04:40:50;14.45;;;3.33;;
71360;SDS011;59166;48.908;1.870;2023-04-07T04:45:51;13.53;;;3.60;;
71360;SDS011;59166;48.908;1.870;2023-04-07T04:50:53;11.60;;;3.08;;
71360;SDS011;59166;48.908;1.870;2023-04-07T04:55:54;11.57;;;3.00;;
71360;SDS011;59166;48.908;1.870;2023-04-07T05:00:54;11.23;;;2.85;;
71360;SDS011;59166;48.908;1.870;2023-04-07T05:05:56;11.40;;;2.80;;
71360;SDS011;59166;48.908;1.870;2023-04-07T05:10:57;10.93;;;3.03;;
71360;SDS011;59166;48.908;1.870;2023-04-07T05:15:58;12.50;;;2.97;;
71360;SDS011;59166;48.908;1.870;2023-04-07T05:21:00;13.50;;;2.90;;
71360;SDS011;59166;48.908;1.870;2023-04-07T05:26:01;10.80;;;2.83;;
71360;SDS011;59166;48.908;1.870;2023-04-07T05:31:01;11.97;;;3.40;;
71360;SDS011;59166;48.908;1.870;2023-04-07T05:36:04;10.93;;;2.77;;
71360;SDS011;59166;48.908;1.870;2023-04-07T05:41:05;11.20;;;2.97;;
71360;SDS011;59166;48.908;1.870;2023-04-07T05:46:05;11.07;;;2.90;;
71360;SDS011;59166;48.908;1.870;2023-04-07T05:51:07;15.05;;;3.10;;
71360;SDS011;59166;48.908;1.870;2023-04-07T05:56:08;11.93;;;2.90;;
71360;SDS011;59166;48.908;1.870;2023-04-07T06:01:09;9.63;;;2.83;;
71360;SDS011;59166;48.908;1.870;2023-04-07T06:06:11;12.13;;;3.03;;
71360;SDS011;59166;48.908;1.870;2023-04-07T06:11:11;12.93;;;2.75;;
71360;SDS011;59166;48.908;1.870;2023-04-07T06:16:12;14.37;;;3.30;;
71360;SDS011;59166;48.908;1.870;2023-04-07T06:21:14;14.97;;;4.70;;
71360;SDS011;59166;48.908;1.870;2023-04-07T06:26:15;12.57;;;4.07;;
71360;SDS011;59166;48.908;1.870;2023-04-07T06:31:15;17.70;;;4.90;;
71360;SDS011;59166;48.908;1.870;2023-04-07T06:36:17;14.90;;;5.10;;
71360;SDS011;59166;48.908;1.870;2023-04-07T06:41:18;17.37;;;5.00;;
71360;SDS011;59166;48.908;1.870;2023-04-07T06:46:19;23.63;;;6.27;;
71360;SDS011;59166;48.908;1.870;2023-04-07T06:51:21;17.93;;;5.90;;
71360;SDS011;59166;48.908;1.870;2023-04-07T06:56:22;22.38;;;6.70;;
71360;SDS011;59166;48.908;1.870;2023-04-07T07:01:22;21.13;;;6.85;;
71360;SDS011;59166;48.908;1.870;2023-04-07T07:06:25;17.90;;;6.80;;
71360;SDS011;59166;48.908;1.870;2023-04-07T07:11:25;18.50;;;6.20;;
71360;SDS011;59166;48.908;1.870;2023-04-07T07:16:26;17.88;;;6.35;;
71360;SDS011;59166;48.908;1.870;2023-04-07T07:21:28;16.37;;;5.80;;
71360;SDS011;59166;48.908;1.870;2023-04-07T07:26:29;16.90;;;5.95;;
71360;SDS011;59166;48.908;1.870;2023-04-07T07:31:29;22.00;;;7.50;;
71360;SDS011;59166;48.908;1.870;2023-04-07T07:36:31;23.60;;;8.87;;
71360;SDS011;59166;48.908;1.870;2023-04-07T07:41:32;25.77;;;10.50;;
71360;SDS011;59166;48.908;1.870;2023-04-07T07:46:33;26.20;;;9.63;;
71360;SDS011;59166;48.908;1.870;2023-04-07T07:51:35;26.90;;;10.63;;
71360;SDS011;59166;48.908;1.870;2023-04-07T07:56:35;23.23;;;8.13;;
71360;SDS011;59166;48.908;1.870;2023-04-07T08:01:36;18.87;;;7.20;;
71360;SDS011;59166;48.908;1.870;2023-04-07T08:06:38;23.47;;;7.60;;
71360;SDS011;59166;48.908;1.870;2023-04-07T08:11:39;17.83;;;6.53;;
71360;SDS011;59166;48.908;1.870;2023-04-07T08:16:40;17.83;;;6.40;;
71360;SDS011;59166;48.908;1.870;2023-04-07T08:21:42;16.42;;;5.93;;
71360;SDS011;59166;48.908;1.870;2023-04-07T08:26:43;18.15;;;5.93;;
71360;SDS011;59166;48.908;1.870;2023-04-07T08:31:44;17.63;;;6.50;;
71360;SDS011;59166;48.908;1.870;2023-04-07T08:36:47;18.10;;;5.93;;
71360;SDS011;59166;48.908;1.870;2023-04-07T08:41:48;19.73;;;6.37;;
71360;SDS011;59166;48.908;1.870;2023-04-07T08:46:50;19.65;;;6.13;;
71360;SDS011;59166;48.908;1.870;2023-04-07T08:52:12;14.18;;;6.15;;
71360;SDS011;59166;48.908;1.870;2023-04-07T08:57:14;14.93;;;6.53;;
71360;SDS011;59166;48.908;1.870;2023-04-07T09:02:16;16.40;;;4.73;;
71360;SDS011;59166;48.908;1.870;2023-04-07T09:07:19;12.00;;;5.07;;
71360;SDS011;59166;48.908;1.870;2023-04-07T09:12:20;13.05;;;4.72;;
71360;SDS011;59166;48.908;1.870;2023-04-07T09:17:21;13.13;;;3.37;;
71360;SDS011;59166;48.908;1.870;2023-04-07T09:22:34;12.32;;;3.95;;
71360;SDS011;59166;48.908;1.870;2023-04-07T09:27:36;10.07;;;2.90;;
71360;SDS011;59166;48.908;1.870;2023-04-07T09:32:37;8.47;;;3.03;;
71360;SDS011;59166;48.908;1.870;2023-04-07T09:37:39;11.35;;;3.42;;
71360;SDS011;59166;48.908;1.870;2023-04-07T09:42:44;10.53;;;2.70;;
71360;SDS011;59166;48.908;1.870;2023-04-07T09:47:45;11.77;;;3.60;;
71360;SDS011;59166;48.908;1.870;2023-04-07T09:52:50;7.72;;;2.40;;
71360;SDS011;59166;48.908;1.870;2023-04-07T09:57:51;7.47;;;1.87;;
71360;SDS011;59166;48.908;1.870;2023-04-07T10:02:53;9.00;;;2.38;;
71360;SDS011;59166;48.908;1.870;2023-04-07T10:07:56;7.00;;;2.00;;
71360;SDS011;59166;48.908;1.870;2023-04-07T10:12:57;5.83;;;1.83;;
71360;SDS011;59166;48.908;1.870;2023-04-07T10:17:59;6.72;;;1.88;;
71360;SDS011;59166;48.908;1.870;2023-04-07T10:23:05;6.32;;;1.60;;
71360;SDS011;59166;48.908;1.870;2023-04-07T10:28:12;5.90;;;1.57;;
71360;SDS011;59166;48.908;1.870;2023-04-07T10:33:15;4.63;;;1.70;;
71360;SDS011;59166;48.908;1.870;2023-04-07T10:38:17;6.38;;;1.80;;
71360;SDS011;59166;48.908;1.870;2023-04-07T10:48:37;6.68;;;1.90;;
71360;SDS011;59166;48.908;1.870;2023-04-07T10:53:39;6.75;;;1.88;;
71360;SDS011;59166;48.908;1.870;2023-04-07T10:59:17;5.77;;;1.77;;
71360;SDS011;59166;48.908;1.870;2023-04-07T11:04:18;9.60;;;2.78;;
71360;SDS011;59166;48.908;1.870;2023-04-07T11:09:21;6.47;;;2.00;;
71360;SDS011;59166;48.908;1.870;2023-04-07T11:14:24;6.97;;;1.80;;
71360;SDS011;59166;48.908;1.870;2023-04-07T11:19:25;6.75;;;1.70;;
71360;SDS011;59166;48.908;1.870;2023-04-07T11:24:34;5.27;;;1.80;;
71360;SDS011;59166;48.908;1.870;2023-04-07T11:29:35;7.20;;;1.70;;
71360;SDS011;59166;48.908;1.870;2023-04-07T11:34:36;6.18;;;1.75;;
71360;SDS011;59166;48.908;1.870;2023-04-07T11:39:38;7.53;;;2.20;;
71360;SDS011;59166;48.908;1.870;2023-04-07T11:44:43;7.15;;;1.90;;
71360;SDS011;59166;48.908;1.870;2023-04-07T11:49:45;5.45;;;1.55;;
71360;SDS011;59166;48.908;1.870;2023-04-07T11:54:47;6.37;;;1.70;;
71360;SDS011;59166;48.908;1.870;2023-04-07T11:59:48;7.30;;;1.85;;
71360;SDS011;59166;48.908;1.870;2023-04-07T12:04:54;6.45;;;1.58;;
71360;SDS011;59166;48.908;1.870;2023-04-07T12:09:57;5.13;;;1.60;;
71360;SDS011;59166;48.908;1.870;2023-04-07T12:14:58;6.13;;;1.73;;
71360;SDS011;59166;48.908;1.870;2023-04-07T12:19:58;6.43;;;2.05;;
71360;SDS011;59166;48.908;1.870;2023-04-07T12:25:01;6.47;;;1.90;;
71360;SDS011;59166;48.908;1.870;2023-04-07T12:30:01;7.50;;;2.25;;
71360;SDS011;59166;48.908;1.870;2023-04-07T12:35:02;7.47;;;2.50;;
71360;SDS011;59166;48.908;1.870;2023-04-07T12:40:05;7.17;;;2.37;;
71360;SDS011;59166;48.908;1.870;2023-04-07T12:45:07;7.53;;;2.35;;
71360;SDS011;59166;48.908;1.870;2023-04-07T12:50:08;8.20;;;2.30;;
71360;SDS011;59166;48.908;1.870;2023-04-07T12:55:12;8.83;;;2.43;;
71360;SDS011;59166;48.908;1.870;2023-04-07T13:00:13;7.05;;;2.10;;
71360;SDS011;59166;48.908;1.870;2023-04-07T13:05:14;7.73;;;2.20;;
71360;SDS011;59166;48.908;1.870;2023-04-07T13:10:16;7.90;;;1.87;;
71360;SDS011;59166;48.908;1.870;2023-04-07T13:15:16;9.60;;;2.10;;
71360;SDS011;59166;48.908;1.870;2023-04-07T13:20:17;5.90;;;1.93;;
71360;SDS011;59166;48.908;1.870;2023-04-07T13:25:19;6.20;;;1.80;;
71360;SDS011;59166;48.908;1.870;2023-04-07T13:30:20;5.78;;;1.80;;
71360;SDS011;59166;48.908;1.870;2023-04-07T13:35:21;6.43;;;2.03;;
71360;SDS011;59166;48.908;1.870;2023-04-07T13:40:23;7.45;;;1.95;;
71360;SDS011;59166;48.908;1.870;2023-04-07T13:45:24;7.07;;;2.20;;
71360;SDS011;59166;48.908;1.870;2023-04-07T13:50:25;7.97;;;2.30;;
71360;SDS011;59166;48.908;1.870;2023-04-07T13:55:27;9.00;;;2.33;;
71360;SDS011;59166;48.908;1.870;2023-04-07T14:00:28;7.63;;;2.15;;
71360;SDS011;59166;48.908;1.870;2023-04-07T14:05:28;7.60;;;2.00;;
71360;SDS011;59166;48.908;1.870;2023-04-07T14:10:30;4.73;;;1.77;;
71360;SDS011;59166;48.908;1.870;2023-04-07T14:15:31;5.33;;;1.63;;
71360;SDS011;59166;48.908;1.870;2023-04-07T14:20:32;7.27;;;1.90;;
71360;SDS011;59166;48.908;1.870;2023-04-07T14:25:34;6.67;;;1.77;;
71360;SDS011;59166;48.908;1.870;2023-04-07T14:30:34;6.72;;;1.58;;
71360;SDS011;59166;48.908;1.870;2023-04-07T14:35:35;4.38;;;1.30;;
71360;SDS011;59166;48.908;1.870;2023-04-07T14:40:38;4.60;;;1.30;;
71360;SDS011;59166;48.908;1.870;2023-04-07T14:45:39;5.60;;;1.40;;
71360;SDS011;59166;48.908;1.870;2023-04-07T14:50:39;6.93;;;1.83;;
71360;SDS011;59166;48.908;1.870;2023-04-07T14:55:41;5.28;;;1.67;;
71360;SDS011;59166;48.908;1.870;2023-04-07T15:00:42;3.80;;;1.30;;
71360;SDS011;59166;48.908;1.870;2023-04-07T15:05:43;3.93;;;1.20;;
71360;SDS011;59166;48.908;1.870;2023-04-07T15:10:45;4.43;;;1.40;;
71360;SDS011;59166;48.908;1.870;2023-04-07T15:15:45;3.67;;;1.30;;
71360;SDS011;59166;48.908;1.870;2023-04-07T15:20:46;4.87;;;1.50;;
71360;SDS011;59166;48.908;1.870;2023-04-07T15:25:48;4.47;;;1.50;;
71360;SDS011;59166;48.908;1.870;2023-04-07T15:30:49;4.13;;;1.52;;
71360;SDS011;59166;48.908;1.870;2023-04-07T15:35:49;4.63;;;1.50;;
71360;SDS011;59166;48.908;1.870;2023-04-07T15:40:51;5.13;;;1.58;;
71360;SDS011;59166;48.908;1.870;2023-04-07T15:45:53;5.80;;;1.60;;
71360;SDS011;59166;48.908;1.870;2023-04-07T15:50:54;6.95;;;2.20;;
71360;SDS011;59166;48.908;1.870;2023-04-07T15:55:56;8.87;;;2.80;;
71360;SDS011;59166;48.908;1.870;2023-04-07T16:00:56;7.65;;;2.75;;
71360;SDS011;59166;48.908;1.870;2023-04-07T16:05:58;6.35;;;2.65;;
71360;SDS011;59166;48.908;1.870;2023-04-07T16:11:00;7.67;;;2.40;;
71360;SDS011;59166;48.908;1.870;2023-04-07T16:16:00;7.78;;;2.30;;
71360;SDS011;59166;48.908;1.870;2023-04-07T16:21:01;9.57;;;2.60;;
71360;SDS011;59166;48.908;1.870;2023-04-07T16:26:06;6.88;;;2.20;;
71360;SDS011;59166;48.908;1.870;2023-04-07T16:31:07;5.77;;;2.00;;
71360;SDS011;59166;48.908;1.870;2023-04-07T16:36:07;7.37;;;2.73;;
71360;SDS011;59166;48.908;1.870;2023-04-07T16:41:09;6.47;;;2.60;;
71360;SDS011;59166;48.908;1.870;2023-04-07T16:46:10;7.32;;;2.65;;
71360;SDS011;59166;48.908;1.870;2023-04-07T16:51:14;7.80;;;2.93;;
71360;SDS011;59166;48.908;1.870;2023-04-07T16:56:17;7.85;;;2.90;;
71360;SDS011;59166;48.908;1.870;2023-04-07T17:01:18;9.23;;;3.05;;
71360;SDS011;59166;48.908;1.870;2023-04-07T17:06:19;7.83;;;2.73;;
71360;SDS011;59166;48.908;1.870;2023-04-07T17:11:21;8.73;;;2.87;;
71360;SDS011;59166;48.908;1.870;2023-04-07T17:16:21;7.97;;;2.67;;
71360;SDS011;59166;48.908;1.870;2023-04-07T17:21:22;6.57;;;2.20;;
71360;SDS011;59166;48.908;1.870;2023-04-07T17:26:24;5.40;;;1.88;;
71360;SDS011;59166;48.908;1.870;2023-04-07T17:31:25;5.23;;;1.70;;
71360;SDS011;59166;48.908;1.870;2023-04-07T17:36:26;6.20;;;1.70;;
71360;SDS011;59166;48.908;1.870;2023-04-07T17:41:28;6.57;;;1.63;;
71360;SDS011;59166;48.908;1.870;2023-04-07T17:46:28;5.03;;;1.65;;
71360;SDS011;59166;48.908;1.870;2023-04-07T17:51:29;7.50;;;1.87;;
71360;SDS011;59166;48.908;1.870;2023-04-07T17:56:32;7.47;;;2.17;;
71360;SDS011;59166;48.908;1.870;2023-04-07T18:01:33;7.30;;;2.20;;
71360;SDS011;59166;48.908;1.870;2023-04-07T18:06:33;5.95;;;2.15;;
71360;SDS011;59166;48.908;1.870;2023-04-07T18:11:36;6.27;;;2.20;;
71360;SDS011;59166;48.908;1.870;2023-04-07T18:16:37;6.47;;;2.20;;
71360;SDS011;59166;48.908;1.870;2023-04-07T18:21:38;7.82;;;2.30;;
71360;SDS011;59166;48.908;1.870;2023-04-07T18:26:41;7.17;;;2.53;;
71360;SDS011;59166;48.908;1.870;2023-04-07T18:31:42;7.82;;;2.60;;
71360;SDS011;59166;48.908;1.870;2023-04-07T18:36:43;7.03;;;2.60;;
71360;SDS011;59166;48.908;1.870;2023-04-07T18:41:45;7.27;;;2.23;;
71360;SDS011;59166;48.908;1.870;2023-04-07T18:46:45;7.83;;;2.40;;
71360;SDS011;59166;48.908;1.870;2023-04-07T18:51:46;8.00;;;2.23;;
71360;SDS011;59166;48.908;1.870;2023-04-07T18:56:48;5.80;;;2.20;;
71360;SDS011;59166;48.908;1.870;2023-04-07T19:01:49;6.20;;;2.03;;
71360;SDS011;59166;48.908;1.870;2023-04-07T19:06:49;7.77;;;2.07;;
71360;SDS011;59166;48.908;1.870;2023-04-07T19:11:51;6.20;;;2.03;;
71360;SDS011;59166;48.908;1.870;2023-04-07T19:16:52;5.13;;;1.70;;
71360;SDS011;59166;48.908;1.870;2023-04-07T19:21:53;4.95;;;1.70;;
71360;SDS011;59166;48.908;1.870;2023-04-07T19:26:55;6.00;;;1.80;;
71360;SDS011;59166;48.908;1.870;2023-04-07T19:31:55;4.70;;;1.60;;
71360;SDS011;59166;48.908;1.870;2023-04-07T19:36:56;5.63;;;1.80;;
71360;SDS011;59166;48.908;1.870;2023-04-07T19:41:58;6.73;;;1.97;;
71360;SDS011;59166;48.908;1.870;2023-04-07T19:46:59;4.50;;;1.60;;
71360;SDS011;59166;48.908;1.870;2023-04-07T19:51:59;6.63;;;1.93;;
71360;SDS011;59166;48.908;1.870;2023-04-07T19:57:01;7.13;;;1.90;;
71360;SDS011;59166;48.908;1.870;2023-04-07T20:02:02;7.07;;;2.27;;
71360;SDS011;59166;48.908;1.870;2023-04-07T20:07:02;6.03;;;2.00;;
71360;SDS011;59166;48.908;1.870;2023-04-07T20:12:05;7.47;;;2.47;;
71360;SDS011;59166;48.908;1.870;2023-04-07T20:17:05;7.97;;;2.80;;
71360;SDS011;59166;48.908;1.870;2023-04-07T20:22:06;8.38;;;2.90;;
71360;SDS011;59166;48.908;1.870;2023-04-07T20:27:08;7.20;;;2.70;;
71360;SDS011;59166;48.908;1.870;2023-04-07T20:32:09;8.30;;;3.33;;
71360;SDS011;59166;48.908;1.870;2023-04-07T20:37:09;9.10;;;3.60;;
71360;SDS011;59166;48.908;1.870;2023-04-07T20:42:12;8.50;;;3.35;;
71360;SDS011;59166;48.908;1.870;2023-04-07T20:47:12;7.33;;;2.73;;
71360;SDS011;59166;48.908;1.870;2023-04-07T20:52:13;8.83;;;2.90;;
71360;SDS011;59166;48.908;1.870;2023-04-07T20:57:15;8.33;;;2.73;;
71360;SDS011;59166;48.908;1.870;2023-04-07T21:02:16;8.95;;;2.88;;
71360;SDS011;59166;48.908;1.870;2023-04-07T21:07:16;9.10;;;2.50;;
71360;SDS011;59166;48.908;1.870;2023-04-07T21:12:18;7.40;;;2.50;;
71360;SDS011;59166;48.908;1.870;2023-04-07T21:17:19;8.18;;;2.60;;
71360;SDS011;59166;48.908;1.870;2023-04-07T21:22:20;7.83;;;3.00;;
71360;SDS011;59166;48.908;1.870;2023-04-07T21:27:22;8.63;;;2.60;;
71360;SDS011;59166;48.908;1.870;2023-04-07T21:32:22;8.33;;;2.50;;
71360;SDS011;59166;48.908;1.870;2023-04-07T21:37:24;7.55;;;2.40;;
71360;SDS011;59166;48.908;1.870;2023-04-07T21:42:28;7.00;;;2.80;;
71360;SDS011;59166;48.908;1.870;2023-04-07T21:47:33;8.25;;;2.42;;
71360;SDS011;59166;48.908;1.870;2023-04-07T21:52:42;7.40;;;1.90;;
71360;SDS011;59166;48.908;1.870;2023-04-07T21:57:58;6.70;;;1.97;;
71360;SDS011;59166;48.908;1.870;2023-04-07T22:03:03;8.80;;;2.40;;
71360;SDS011;59166;48.908;1.870;2023-04-07T22:08:04;8.20;;;1.95;;
71360;SDS011;59166;48.908;1.870;2023-04-07T22:13:08;7.03;;;2.05;;
71360;SDS011;59166;48.908;1.870;2023-04-07T22:18:09;7.17;;;1.67;;
71360;SDS011;59166;48.908;1.870;2023-04-07T22:23:09;7.05;;;2.03;;
71360;SDS011;59166;48.908;1.870;2023-04-07T22:28:12;6.33;;;2.20;;
71360;SDS011;59166;48.908;1.870;2023-04-07T22:33:14;7.45;;;1.80;;
71360;SDS011;59166;48.908;1.870;2023-04-07T22:38:15;8.82;;;1.80;;
71360;SDS011;59166;48.908;1.870;2023-04-07T22:43:20;7.03;;;2.20;;
71360;SDS011;59166;48.908;1.870;2023-04-07T22:48:24;6.77;;;1.73;;
71360;SDS011;59166;48.908;1.870;2023-04-07T22:53:26;6.97;;;2.00;;
71360;SDS011;59166;48.908;1.870;2023-04-07T22:58:31;8.65;;;2.20;;
71360;SDS011;59166;48.908;1.870;2023-04-07T23:03:33;6.53;;;1.97;;
71360;SDS011;59166;48.908;1.870;2023-04-07T23:08:47;6.80;;;2.40;;
71360;SDS011;59166;48.908;1.870;2023-04-07T23:19:29;8.97;;;2.37;;
71360;SDS011;59166;48.908;1.870;2023-04-07T23:24:31;8.85;;;2.70;;
71360;SDS011;59166;48.908;1.870;2023-04-07T23:29:44;7.00;;;2.70;;
71360;SDS011;59166;48.908;1.870;2023-04-07T23:34:56;7.37;;;2.40;;
71360;SDS011;59166;48.908;1.870;2023-04-07T23:39:58;8.70;;;2.67;;
71360;SDS011;59166;48.908;1.870;2023-04-07T23:45:17;10.38;;;2.50;;
71360;SDS011;59166;48.908;1.870;2023-04-07T23:50:23;7.47;;;2.50;;
71360;SDS011;59166;48.908;1.870;2023-04-07T23:55:25;6.70;;;2.50;;
